createdAt,value
2019-02-26T00:04:36.912Z,34.10
2019-02-26T00:09:42.485Z,36.00
2019-02-26T00:14:49.995Z,36.25
2019-02-26T00:19:54.913Z,36.83
2019-02-26T00:25:03.833Z,39.38
2019-02-26T00:30:11.182Z,39.05
2019-02-26T00:35:18.226Z,38.80
2019-02-26T00:40:23.224Z,33.25
2019-02-26T00:45:29.460Z,30.48
2019-02-26T00:50:37.313Z,40.03
2019-02-26T00:55:42.199Z,41.58
2019-02-26T01:00:47.213Z,38.53
2019-02-26T01:05:52.631Z,31.80
2019-02-26T01:10:59.244Z,34.27
2019-02-26T01:16:04.376Z,32.80
2019-02-26T01:21:09.387Z,30.35
2019-02-26T01:26:14.745Z,27.95
2019-02-26T01:31:20.706Z,31.52
2019-02-26T01:36:26.821Z,29.13
2019-02-26T01:41:32.241Z,26.03
2019-02-26T01:46:38.967Z,29.10
2019-02-26T01:51:46.937Z,36.90
2019-02-26T01:56:53.429Z,34.53
2019-02-26T02:01:58.747Z,30.80
2019-02-26T02:07:05.939Z,30.27
2019-02-26T02:12:11.042Z,29.07
2019-02-26T02:17:17.682Z,30.45
2019-02-26T02:22:22.699Z,32.38
2019-02-26T02:27:30.350Z,31.52
2019-02-26T02:32:34.601Z,27.48
2019-02-26T02:37:39.581Z,28.47
2019-02-26T02:42:48.493Z,29.87
2019-02-26T02:47:54.850Z,29.80
2019-02-26T02:52:59.629Z,27.87
2019-02-26T02:58:04.758Z,27.15
2019-02-26T03:03:09.773Z,30.12
2019-02-26T03:08:16.337Z,29.42
2019-02-26T03:13:24.870Z,35.70
2019-02-26T03:18:28.239Z,39.70
2019-02-26T03:23:33.944Z,44.13
2019-02-26T03:28:44.435Z,43.00
2019-02-26T03:33:48.897Z,38.40
2019-02-26T03:38:56.595Z,35.48
2019-02-26T03:44:03.262Z,35.17
2019-02-26T03:49:08.075Z,38.40
2019-02-26T03:54:13.104Z,35.40
2019-02-26T03:59:18.154Z,33.73
2019-02-26T04:04:25.627Z,34.18
2019-02-26T04:09:29.859Z,30.27
2019-02-26T04:14:34.895Z,34.78
2019-02-26T04:19:43.647Z,30.10
2019-02-26T04:24:46.579Z,35.73
2019-02-26T04:30:34.035Z,30.48
2019-02-26T04:35:55.620Z,33.63
2019-02-26T04:41:25.717Z,31.40
2019-02-26T04:46:53.941Z,33.73
2019-02-26T04:51:59.231Z,30.35
2019-02-26T04:57:04.332Z,28.75
2019-02-26T05:02:09.437Z,32.37
2019-02-26T05:07:18.733Z,40.53
2019-02-26T05:12:25.041Z,38.13
2019-02-26T05:17:30.246Z,39.65
2019-02-26T05:22:34.637Z,35.97
2019-02-26T05:27:42.389Z,35.47
2019-02-26T05:32:46.352Z,35.60
2019-02-26T05:37:51.365Z,37.95
2019-02-26T05:42:58.833Z,40.63
2019-02-26T05:48:03.536Z,41.20
2019-02-26T05:53:11.439Z,44.05
2019-02-26T05:58:16.422Z,43.98
2019-02-26T06:03:21.877Z,42.95
2019-02-26T06:08:30.164Z,41.40
2019-02-26T06:13:35.534Z,40.85
2019-02-26T06:18:41.987Z,40.25
2019-02-26T06:23:52.219Z,44.47
2019-02-26T06:28:57.229Z,44.07
2019-02-26T06:34:05.638Z,40.57
2019-02-26T06:39:09.227Z,38.88
2019-02-26T06:44:14.265Z,39.57
2019-02-26T06:49:20.686Z,42.20
2019-02-26T06:54:27.124Z,36.95
2019-02-26T06:59:34.948Z,35.08
2019-02-26T07:04:39.629Z,39.95
2019-02-26T07:09:44.689Z,36.42
2019-02-26T07:14:51.357Z,33.20
2019-02-26T07:19:58.459Z,33.38
2019-02-26T07:25:06.444Z,34.27
2019-02-26T07:30:11.878Z,34.67
2019-02-26T07:35:17.339Z,32.98
2019-02-26T07:40:22.697Z,29.97
2019-02-26T07:45:29.641Z,30.52
2019-02-26T07:50:37.644Z,31.77
2019-02-26T07:55:42.406Z,35.00
2019-02-26T08:00:49.864Z,37.63
2019-02-26T08:05:54.183Z,34.03
2019-02-26T08:10:59.227Z,35.50
2019-02-26T08:16:05.115Z,30.32
2019-02-26T08:21:10.275Z,27.13
2019-02-26T08:26:17.290Z,27.73
2019-02-26T08:31:23.229Z,28.20
2019-02-26T08:36:30.116Z,30.25
2019-02-26T08:41:36.279Z,28.98
2019-02-26T08:46:42.723Z,30.45
2019-02-26T08:51:49.235Z,30.48
2019-02-26T08:56:54.495Z,32.15
2019-02-26T09:01:59.601Z,31.17
2019-02-26T09:07:04.644Z,30.08
2019-02-26T09:12:10.101Z,30.25
2019-02-26T09:17:18.712Z,34.27
2019-02-26T09:22:23.608Z,30.15
2019-02-26T09:27:29.470Z,32.28
2019-02-26T09:32:37.541Z,30.20
2019-02-26T09:37:42.795Z,27.95
2019-02-26T09:42:51.755Z,27.70
2019-02-26T09:47:57.862Z,27.97
2019-02-26T09:53:02.593Z,29.03
2019-02-26T09:58:07.770Z,26.77
2019-02-26T10:03:15.029Z,27.03
2019-02-26T10:08:20.367Z,27.50
2019-02-26T10:13:27.758Z,28.30
2019-02-26T10:18:33.075Z,29.77
2019-02-26T10:23:38.415Z,29.77
2019-02-26T10:28:46.795Z,28.60
2019-02-26T10:33:50.854Z,27.40
2019-02-26T10:38:57.857Z,29.25
2019-02-26T10:44:02.698Z,29.30
2019-02-26T10:49:07.846Z,25.82
2019-02-26T10:54:17.664Z,26.48
2019-02-26T10:59:25.024Z,25.48
2019-02-26T11:04:35.568Z,28.47
2019-02-26T11:09:41.056Z,24.85
2019-02-26T11:14:46.166Z,25.55
2019-02-26T11:24:56.132Z,25.00
2019-02-26T11:30:04.886Z,25.85
2019-02-26T11:35:11.728Z,25.20
2019-02-26T11:40:19.756Z,23.57
2019-02-26T11:45:24.206Z,25.60
2019-02-26T11:50:29.352Z,27.20
2019-02-26T11:55:37.396Z,26.62
2019-02-26T12:00:50.799Z,23.83
2019-02-26T12:06:00.631Z,24.00
2019-02-26T12:31:25.381Z,25.63
2019-02-26T12:36:32.671Z,24.72
2019-02-26T12:41:41.190Z,25.02
2019-02-26T12:46:45.828Z,22.57
2019-02-26T12:51:53.982Z,23.53
2019-02-26T14:18:22.752Z,25.88
2019-02-26T14:33:36.554Z,24.95
2019-02-26T17:51:39.273Z,26.13
2019-02-26T17:56:44.961Z,27.30
2019-02-26T18:01:50.042Z,27.40
2019-02-26T18:06:55.193Z,26.13
2019-02-26T18:12:02.289Z,29.43
2019-02-26T18:17:07.527Z,30.30
2019-02-26T18:22:12.607Z,31.33
2019-02-26T18:27:17.869Z,30.23
2019-02-26T18:32:23.138Z,34.63
2019-02-26T18:37:29.620Z,33.30
2019-02-26T18:42:34.754Z,30.53
2019-02-26T18:47:42.376Z,32.50
2019-02-26T18:52:47.681Z,33.70
2019-02-26T18:57:54.462Z,29.57
2019-02-26T19:02:59.688Z,30.53
2019-02-26T19:08:05.826Z,28.83
2019-02-26T19:13:11.804Z,28.40
2019-02-26T19:18:17.538Z,28.70
2019-02-26T19:23:22.785Z,27.87
2019-02-26T19:28:28.621Z,31.35
2019-02-26T19:33:33.837Z,31.90
2019-02-26T19:38:39.776Z,31.80
2019-02-26T19:44:00.032Z,32.37
2019-02-26T19:49:05.722Z,31.07
2019-02-26T19:54:11.616Z,31.70
2019-02-26T19:59:16.750Z,30.70
2019-02-26T20:04:22.488Z,32.58
2019-02-26T20:09:33.562Z,34.57
2019-02-26T20:14:38.882Z,32.90
2019-02-26T20:19:44.344Z,32.05
2019-02-26T20:24:49.668Z,32.47
2019-02-26T20:29:55.465Z,32.80
2019-02-26T20:35:00.734Z,33.58
2019-02-26T20:40:16.001Z,34.00
2019-02-26T20:45:19.002Z,31.70
2019-02-26T20:50:24.440Z,33.00
2019-02-26T20:55:29.832Z,33.63
2019-02-26T21:00:35.102Z,32.95
2019-02-26T21:05:41.790Z,33.70
2019-02-26T21:10:52.156Z,33.00
2019-02-26T21:15:58.081Z,32.60
2019-02-26T21:21:03.328Z,33.05
2019-02-26T21:26:09.456Z,36.13
2019-02-26T21:31:16.684Z,34.20
2019-02-26T21:36:27.906Z,34.20
2019-02-26T21:41:35.849Z,38.60
2019-02-26T21:46:47.352Z,37.45
2019-02-26T21:51:55.451Z,34.78
2019-02-26T21:57:02.366Z,35.43
2019-02-26T22:02:11.104Z,35.28
2019-02-26T22:07:16.806Z,35.05
2019-02-26T22:12:26.475Z,34.10
2019-02-26T22:17:33.861Z,33.73
2019-02-26T22:22:40.123Z,35.73
2019-02-26T22:27:45.269Z,39.92
2019-02-26T22:32:55.282Z,35.98
2019-02-26T22:38:00.368Z,36.68
2019-02-26T22:43:05.399Z,42.75
2019-02-26T22:48:15.140Z,39.93
2019-02-26T22:53:21.470Z,38.10
2019-02-26T22:58:27.758Z,44.08
2019-02-26T23:03:32.800Z,41.70
2019-02-26T23:08:37.846Z,38.80
2019-02-26T23:13:44.152Z,37.48
2019-02-26T23:18:49.629Z,37.78
2019-02-26T23:23:56.673Z,38.33
2019-02-26T23:29:02.094Z,38.13
2019-02-26T23:34:10.272Z,38.23
2019-02-26T23:39:16.907Z,42.30
2019-02-26T23:44:23.661Z,36.73
2019-02-26T23:49:28.658Z,40.60
2019-02-26T23:54:33.760Z,42.75
2019-02-26T23:59:47.827Z,39.18
